sensor_id;sensor_type;location;lat;lon;timestamp;P1;durP1;ratioP1;P2;durP2;ratioP2
11541;SDS011;5827;49.482;7.716;2023-04-02T00:01:03;1.50;;;1.30;;
11541;SDS011;5827;49.482;7.716;2023-04-02T00:03:31;2.63;;;1.53;;
11541;SDS011;5827;49.482;7.716;2023-04-02T00:06:26;1.77;;;1.40;;
11541;SDS011;5827;49.482;7.716;2023-04-02T00:08:35;1.70;;;1.60;;
11541;SDS011;5827;49.482;7.716;2023-04-02T00:10:45;1.53;;;1.40;;
11541;SDS011;5827;49.482;7.716;2023-04-02T00:12:57;2.00;;;1.50;;
11541;SDS011;5827;49.482;7.716;2023-04-02T00:15:00;5.17;;;1.90;;
11541;SDS011;5827;49.482;7.716;2023-04-02T00:17:03;2.40;;;1.63;;
11541;SDS011;5827;49.482;7.716;2023-04-02T00:19:05;2.10;;;1.87;;
11541;SDS011;5827;49.482;7.716;2023-04-02T00:21:15;2.77;;;1.77;;
11541;SDS011;5827;49.482;7.716;2023-04-02T00:23:21;2.70;;;1.70;;
11541;SDS011;5827;49.482;7.716;2023-04-02T00:25:24;2.77;;;1.60;;
11541;SDS011;5827;49.482;7.716;2023-04-02T00:27:28;2.37;;;1.57;;
11541;SDS011;5827;49.482;7.716;2023-04-02T00:29:31;2.77;;;1.50;;
11541;SDS011;5827;49.482;7.716;2023-04-02T00:31:33;2.87;;;1.70;;
11541;SDS011;5827;49.482;7.716;2023-04-02T00:33:37;1.37;;;1.27;;
11541;SDS011;5827;49.482;7.716;2023-04-02T00:35:39;1.47;;;1.37;;
11541;SDS011;5827;49.482;7.716;2023-04-02T00:37:41;3.43;;;1.47;;
11541;SDS011;5827;49.482;7.716;2023-04-02T00:39:45;3.30;;;1.43;;
11541;SDS011;5827;49.482;7.716;2023-04-02T00:41:47;2.03;;;1.60;;
11541;SDS011;5827;49.482;7.716;2023-04-02T00:44:03;1.60;;;1.50;;
11541;SDS011;5827;49.482;7.716;2023-04-02T00:46:07;1.50;;;1.40;;
11541;SDS011;5827;49.482;7.716;2023-04-02T00:48:15;1.73;;;1.63;;
11541;SDS011;5827;49.482;7.716;2023-04-02T00:50:29;1.90;;;1.70;;
11541;SDS011;5827;49.482;7.716;2023-04-02T00:52:35;3.03;;;1.90;;
11541;SDS011;5827;49.482;7.716;2023-04-02T00:54:39;2.27;;;1.60;;
11541;SDS011;5827;49.482;7.716;2023-04-02T00:56:46;1.80;;;1.70;;
11541;SDS011;5827;49.482;7.716;2023-04-02T00:58:51;4.00;;;1.70;;
11541;SDS011;5827;49.482;7.716;2023-04-02T01:00:54;2.07;;;1.30;;
11541;SDS011;5827;49.482;7.716;2023-04-02T01:05:33;2.00;;;1.80;;
11541;SDS011;5827;49.482;7.716;2023-04-02T01:07:39;1.80;;;1.70;;
11541;SDS011;5827;49.482;7.716;2023-04-02T01:10:09;2.03;;;1.80;;
11541;SDS011;5827;49.482;7.716;2023-04-02T01:12:31;2.77;;;1.60;;
11541;SDS011;5827;49.482;7.716;2023-04-02T01:14:51;1.70;;;1.60;;
11541;SDS011;5827;49.482;7.716;2023-04-02T01:17:02;2.33;;;1.90;;
11541;SDS011;5827;49.482;7.716;2023-04-02T01:19:14;2.57;;;2.00;;
11541;SDS011;5827;49.482;7.716;2023-04-02T01:21:51;2.83;;;2.17;;
11541;SDS011;5827;49.482;7.716;2023-04-02T01:23:58;2.90;;;2.40;;
11541;SDS011;5827;49.482;7.716;2023-04-02T01:26:04;2.23;;;2.00;;
11541;SDS011;5827;49.482;7.716;2023-04-02T01:28:16;3.37;;;2.20;;
11541;SDS011;5827;49.482;7.716;2023-04-02T01:30:21;2.57;;;2.30;;
11541;SDS011;5827;49.482;7.716;2023-04-02T01:32:25;2.60;;;2.40;;
11541;SDS011;5827;49.482;7.716;2023-04-02T01:34:29;3.20;;;2.43;;
11541;SDS011;5827;49.482;7.716;2023-04-02T01:36:33;2.50;;;2.30;;
11541;SDS011;5827;49.482;7.716;2023-04-02T01:38:39;3.87;;;2.30;;
11541;SDS011;5827;49.482;7.716;2023-04-02T01:40:48;4.47;;;2.60;;
11541;SDS011;5827;49.482;7.716;2023-04-02T01:42:59;2.80;;;2.50;;
11541;SDS011;5827;49.482;7.716;2023-04-02T01:45:07;3.17;;;2.43;;
11541;SDS011;5827;49.482;7.716;2023-04-02T01:47:12;4.30;;;2.50;;
11541;SDS011;5827;49.482;7.716;2023-04-02T01:49:18;2.50;;;2.30;;
11541;SDS011;5827;49.482;7.716;2023-04-02T01:51:23;2.90;;;2.50;;
11541;SDS011;5827;49.482;7.716;2023-04-02T01:53:27;2.93;;;2.40;;
11541;SDS011;5827;49.482;7.716;2023-04-02T01:55:32;2.77;;;2.57;;
11541;SDS011;5827;49.482;7.716;2023-04-02T01:57:39;3.00;;;2.30;;
11541;SDS011;5827;49.482;7.716;2023-04-02T01:59:43;2.30;;;2.20;;
11541;SDS011;5827;49.482;7.716;2023-04-02T02:01:45;3.33;;;2.90;;
11541;SDS011;5827;49.482;7.716;2023-04-02T02:03:53;2.90;;;2.70;;
11541;SDS011;5827;49.482;7.716;2023-04-02T02:05:55;2.73;;;2.53;;
11541;SDS011;5827;49.482;7.716;2023-04-02T02:07:57;2.40;;;2.20;;
11541;SDS011;5827;49.482;7.716;2023-04-02T02:10:00;2.47;;;2.23;;
11541;SDS011;5827;49.482;7.716;2023-04-02T02:12:02;3.33;;;2.33;;
11541;SDS011;5827;49.482;7.716;2023-04-02T02:14:07;3.77;;;2.70;;
11541;SDS011;5827;49.482;7.716;2023-04-02T02:16:15;2.77;;;2.50;;
11541;SDS011;5827;49.482;7.716;2023-04-02T02:18:18;3.57;;;2.50;;
11541;SDS011;5827;49.482;7.716;2023-04-02T02:20:23;2.83;;;2.20;;
11541;SDS011;5827;49.482;7.716;2023-04-02T02:22:28;3.03;;;2.43;;
11541;SDS011;5827;49.482;7.716;2023-04-02T02:24:32;2.43;;;2.20;;
11541;SDS011;5827;49.482;7.716;2023-04-02T02:26:35;2.63;;;2.43;;
11541;SDS011;5827;49.482;7.716;2023-04-02T02:28:38;3.07;;;2.33;;
11541;SDS011;5827;49.482;7.716;2023-04-02T02:30:43;3.33;;;2.40;;
11541;SDS011;5827;49.482;7.716;2023-04-02T02:32:51;3.23;;;2.40;;
11541;SDS011;5827;49.482;7.716;2023-04-02T02:34:57;3.27;;;2.40;;
11541;SDS011;5827;49.482;7.716;2023-04-02T02:37:07;2.37;;;2.17;;
11541;SDS011;5827;49.482;7.716;2023-04-02T02:39:14;2.20;;;2.00;;
11541;SDS011;5827;49.482;7.716;2023-04-02T02:41:21;2.50;;;2.30;;
11541;SDS011;5827;49.482;7.716;2023-04-02T02:43:28;2.30;;;2.10;;
11541;SDS011;5827;49.482;7.716;2023-04-02T02:45:32;4.27;;;2.17;;
11541;SDS011;5827;49.482;7.716;2023-04-02T02:47:37;2.37;;;2.17;;
11541;SDS011;5827;49.482;7.716;2023-04-02T02:49:42;2.57;;;1.90;;
11541;SDS011;5827;49.482;7.716;2023-04-02T02:51:47;2.37;;;2.17;;
11541;SDS011;5827;49.482;7.716;2023-04-02T02:53:56;2.77;;;2.00;;
11541;SDS011;5827;49.482;7.716;2023-04-02T02:56:01;2.60;;;2.17;;
11541;SDS011;5827;49.482;7.716;2023-04-02T02:58:03;2.47;;;2.13;;
11541;SDS011;5827;49.482;7.716;2023-04-02T03:00:08;2.87;;;2.40;;
11541;SDS011;5827;49.482;7.716;2023-04-02T03:02:12;2.50;;;2.30;;
11541;SDS011;5827;49.482;7.716;2023-04-02T03:04:17;2.33;;;2.13;;
11541;SDS011;5827;49.482;7.716;2023-04-02T03:06:21;2.60;;;2.40;;
11541;SDS011;5827;49.482;7.716;2023-04-02T03:08:25;2.73;;;2.30;;
11541;SDS011;5827;49.482;7.716;2023-04-02T03:10:35;2.87;;;2.67;;
11541;SDS011;5827;49.482;7.716;2023-04-02T03:12:44;2.93;;;2.60;;
11541;SDS011;5827;49.482;7.716;2023-04-02T03:14:52;4.60;;;2.83;;
11541;SDS011;5827;49.482;7.716;2023-04-02T03:17:02;2.97;;;2.77;;
11541;SDS011;5827;49.482;7.716;2023-04-02T03:19:13;3.10;;;2.90;;
11541;SDS011;5827;49.482;7.716;2023-04-02T03:21:26;3.07;;;2.77;;
11541;SDS011;5827;49.482;7.716;2023-04-02T03:23:31;3.20;;;2.90;;
11541;SDS011;5827;49.482;7.716;2023-04-02T03:25:38;2.87;;;2.67;;
11541;SDS011;5827;49.482;7.716;2023-04-02T03:27:45;5.53;;;3.20;;
11541;SDS011;5827;49.482;7.716;2023-04-02T03:29:51;3.23;;;2.80;;
11541;SDS011;5827;49.482;7.716;2023-04-02T03:32:03;2.80;;;2.60;;
11541;SDS011;5827;49.482;7.716;2023-04-02T03:34:09;3.07;;;2.80;;
11541;SDS011;5827;49.482;7.716;2023-04-02T03:36:18;3.40;;;3.10;;
11541;SDS011;5827;49.482;7.716;2023-04-02T03:38:28;3.00;;;2.70;;
11541;SDS011;5827;49.482;7.716;2023-04-02T03:40:32;4.63;;;3.00;;
11541;SDS011;5827;49.482;7.716;2023-04-02T03:42:39;2.70;;;2.50;;
11541;SDS011;5827;49.482;7.716;2023-04-02T03:44:45;3.10;;;2.77;;
11541;SDS011;5827;49.482;7.716;2023-04-02T03:46:51;2.80;;;2.60;;
11541;SDS011;5827;49.482;7.716;2023-04-02T03:48:58;3.43;;;3.07;;
11541;SDS011;5827;49.482;7.716;2023-04-02T03:51:03;3.07;;;2.87;;
11541;SDS011;5827;49.482;7.716;2023-04-02T03:53:10;2.87;;;2.67;;
11541;SDS011;5827;49.482;7.716;2023-04-02T03:55:13;3.93;;;3.20;;
11541;SDS011;5827;49.482;7.716;2023-04-02T03:57:19;3.23;;;2.90;;
11541;SDS011;5827;49.482;7.716;2023-04-02T03:59:29;3.23;;;2.93;;
11541;SDS011;5827;49.482;7.716;2023-04-02T04:01:38;3.40;;;3.10;;
11541;SDS011;5827;49.482;7.716;2023-04-02T04:03:46;5.73;;;3.30;;
11541;SDS011;5827;49.482;7.716;2023-04-02T04:05:51;3.27;;;3.00;;
11541;SDS011;5827;49.482;7.716;2023-04-02T04:07:58;4.80;;;2.87;;
11541;SDS011;5827;49.482;7.716;2023-04-02T04:10:03;2.70;;;2.50;;
11541;SDS011;5827;49.482;7.716;2023-04-02T04:12:08;3.30;;;3.00;;
11541;SDS011;5827;49.482;7.716;2023-04-02T04:14:16;2.87;;;2.60;;
11541;SDS011;5827;49.482;7.716;2023-04-02T04:16:23;3.47;;;2.87;;
11541;SDS011;5827;49.482;7.716;2023-04-02T04:18:30;3.10;;;2.80;;
11541;SDS011;5827;49.482;7.716;2023-04-02T04:20:39;5.07;;;3.00;;
11541;SDS011;5827;49.482;7.716;2023-04-02T04:22:50;3.23;;;2.60;;
11541;SDS011;5827;49.482;7.716;2023-04-02T04:24:54;3.00;;;2.80;;
11541;SDS011;5827;49.482;7.716;2023-04-02T04:26:58;3.23;;;2.87;;
11541;SDS011;5827;49.482;7.716;2023-04-02T04:29:12;3.00;;;2.70;;
11541;SDS011;5827;49.482;7.716;2023-04-02T04:31:29;2.80;;;2.33;;
11541;SDS011;5827;49.482;7.716;2023-04-02T04:33:38;2.80;;;2.60;;
11541;SDS011;5827;49.482;7.716;2023-04-02T04:35:43;3.13;;;2.60;;
11541;SDS011;5827;49.482;7.716;2023-04-02T04:37:48;3.60;;;2.50;;
11541;SDS011;5827;49.482;7.716;2023-04-02T04:39:58;3.00;;;2.80;;
11541;SDS011;5827;49.482;7.716;2023-04-02T04:42:04;4.50;;;2.80;;
11541;SDS011;5827;49.482;7.716;2023-04-02T04:44:11;3.17;;;2.87;;
11541;SDS011;5827;49.482;7.716;2023-04-02T04:46:17;2.80;;;2.50;;
11541;SDS011;5827;49.482;7.716;2023-04-02T04:48:25;2.60;;;2.40;;
11541;SDS011;5827;49.482;7.716;2023-04-02T04:50:34;2.50;;;2.30;;
11541;SDS011;5827;49.482;7.716;2023-04-02T04:52:39;2.70;;;2.50;;
11541;SDS011;5827;49.482;7.716;2023-04-02T04:54:42;3.13;;;2.83;;
11541;SDS011;5827;49.482;7.716;2023-04-02T04:56:46;3.53;;;2.80;;
11541;SDS011;5827;49.482;7.716;2023-04-02T04:58:52;2.87;;;2.67;;
11541;SDS011;5827;49.482;7.716;2023-04-02T05:00:59;4.40;;;2.70;;
11541;SDS011;5827;49.482;7.716;2023-04-02T05:03:09;2.90;;;2.70;;
11541;SDS011;5827;49.482;7.716;2023-04-02T05:05:19;2.80;;;2.60;;
11541;SDS011;5827;49.482;7.716;2023-04-02T05:07:26;2.93;;;2.73;;
11541;SDS011;5827;49.482;7.716;2023-04-02T05:09:31;2.53;;;2.33;;
11541;SDS011;5827;49.482;7.716;2023-04-02T05:11:38;2.63;;;2.30;;
11541;SDS011;5827;49.482;7.716;2023-04-02T05:13:46;2.63;;;2.43;;
11541;SDS011;5827;49.482;7.716;2023-04-02T05:15:53;2.77;;;2.57;;
11541;SDS011;5827;49.482;7.716;2023-04-02T05:18:14;2.87;;;2.67;;
11541;SDS011;5827;49.482;7.716;2023-04-02T05:20:24;4.10;;;2.90;;
11541;SDS011;5827;49.482;7.716;2023-04-02T05:22:32;2.77;;;2.57;;
11541;SDS011;5827;49.482;7.716;2023-04-02T05:24:40;2.53;;;2.40;;
11541;SDS011;5827;49.482;7.716;2023-04-02T05:26:48;3.20;;;2.90;;
11541;SDS011;5827;49.482;7.716;2023-04-02T05:28:53;2.70;;;2.50;;
11541;SDS011;5827;49.482;7.716;2023-04-02T05:31:00;3.50;;;3.20;;
11541;SDS011;5827;49.482;7.716;2023-04-02T05:33:12;3.70;;;3.40;;
11541;SDS011;5827;49.482;7.716;2023-04-02T05:35:19;3.50;;;3.20;;
11541;SDS011;5827;49.482;7.716;2023-04-02T05:37:32;3.90;;;3.03;;
11541;SDS011;5827;49.482;7.716;2023-04-02T05:39:34;3.80;;;3.30;;
11541;SDS011;5827;49.482;7.716;2023-04-02T05:41:36;3.93;;;3.60;;
11541;SDS011;5827;49.482;7.716;2023-04-02T05:43:43;3.50;;;3.20;;
11541;SDS011;5827;49.482;7.716;2023-04-02T05:45:50;3.90;;;3.50;;
11541;SDS011;5827;49.482;7.716;2023-04-02T05:47:54;5.10;;;3.00;;
11541;SDS011;5827;49.482;7.716;2023-04-02T05:50:09;3.40;;;3.13;;
11541;SDS011;5827;49.482;7.716;2023-04-02T05:52:19;3.43;;;3.17;;
11541;SDS011;5827;49.482;7.716;2023-04-02T05:54:25;4.03;;;3.57;;
11541;SDS011;5827;49.482;7.716;2023-04-02T05:56:31;3.70;;;3.40;;
11541;SDS011;5827;49.482;7.716;2023-04-02T05:58:40;3.63;;;3.33;;
11541;SDS011;5827;49.482;7.716;2023-04-02T06:00:53;4.50;;;3.60;;
11541;SDS011;5827;49.482;7.716;2023-04-02T06:03:03;4.00;;;3.60;;
11541;SDS011;5827;49.482;7.716;2023-04-02T06:05:11;4.23;;;3.60;;
11541;SDS011;5827;49.482;7.716;2023-04-02T06:07:17;4.93;;;4.10;;
11541;SDS011;5827;49.482;7.716;2023-04-02T06:09:27;4.70;;;4.30;;
11541;SDS011;5827;49.482;7.716;2023-04-02T06:11:36;4.10;;;3.70;;
11541;SDS011;5827;49.482;7.716;2023-04-02T06:13:41;4.30;;;3.87;;
11541;SDS011;5827;49.482;7.716;2023-04-02T06:15:43;3.60;;;3.30;;
11541;SDS011;5827;49.482;7.716;2023-04-02T06:17:45;3.93;;;3.63;;
11541;SDS011;5827;49.482;7.716;2023-04-02T06:19:48;3.93;;;3.63;;
11541;SDS011;5827;49.482;7.716;2023-04-02T06:21:51;3.90;;;3.60;;
11541;SDS011;5827;49.482;7.716;2023-04-02T06:23:59;3.83;;;3.53;;
11541;SDS011;5827;49.482;7.716;2023-04-02T06:26:06;4.07;;;3.77;;
11541;SDS011;5827;49.482;7.716;2023-04-02T06:28:13;4.20;;;3.80;;
11541;SDS011;5827;49.482;7.716;2023-04-02T06:30:17;4.57;;;3.80;;
11541;SDS011;5827;49.482;7.716;2023-04-02T06:32:21;5.30;;;4.20;;
11541;SDS011;5827;49.482;7.716;2023-04-02T06:34:26;4.13;;;3.73;;
11541;SDS011;5827;49.482;7.716;2023-04-02T06:36:29;3.97;;;3.63;;
11541;SDS011;5827;49.482;7.716;2023-04-02T06:38:33;4.03;;;3.00;;
11541;SDS011;5827;49.482;7.716;2023-04-02T06:40:38;5.87;;;3.20;;
11541;SDS011;5827;49.482;7.716;2023-04-02T06:42:43;4.13;;;3.83;;
11541;SDS011;5827;49.482;7.716;2023-04-02T06:44:48;3.53;;;3.23;;
11541;SDS011;5827;49.482;7.716;2023-04-02T06:46:50;4.03;;;3.63;;
11541;SDS011;5827;49.482;7.716;2023-04-02T06:48:56;4.37;;;3.93;;
11541;SDS011;5827;49.482;7.716;2023-04-02T06:51:04;4.23;;;3.83;;
11541;SDS011;5827;49.482;7.716;2023-04-02T06:53:08;4.73;;;3.70;;
11541;SDS011;5827;49.482;7.716;2023-04-02T06:55:26;4.00;;;3.70;;
11541;SDS011;5827;49.482;7.716;2023-04-02T06:57:32;4.03;;;3.73;;
11541;SDS011;5827;49.482;7.716;2023-04-02T06:59:36;4.53;;;4.00;;
11541;SDS011;5827;49.482;7.716;2023-04-02T07:01:38;4.77;;;3.90;;
11541;SDS011;5827;49.482;7.716;2023-04-02T07:03:43;4.47;;;4.07;;
11541;SDS011;5827;49.482;7.716;2023-04-02T07:05:45;3.90;;;3.60;;
11541;SDS011;5827;49.482;7.716;2023-04-02T07:07:47;5.20;;;3.60;;
11541;SDS011;5827;49.482;7.716;2023-04-02T07:09:48;4.07;;;3.67;;
11541;SDS011;5827;49.482;7.716;2023-04-02T07:11:50;4.27;;;3.27;;
11541;SDS011;5827;49.482;7.716;2023-04-02T07:13:51;3.30;;;3.00;;
11541;SDS011;5827;49.482;7.716;2023-04-02T07:15:54;4.23;;;2.80;;
11541;SDS011;5827;49.482;7.716;2023-04-02T07:17:56;3.83;;;3.53;;
11541;SDS011;5827;49.482;7.716;2023-04-02T07:19:58;4.63;;;3.10;;
11541;SDS011;5827;49.482;7.716;2023-04-02T07:21:59;3.30;;;3.10;;
11541;SDS011;5827;49.482;7.716;2023-04-02T07:24:01;3.43;;;3.13;;
11541;SDS011;5827;49.482;7.716;2023-04-02T07:26:03;3.90;;;3.60;;
11541;SDS011;5827;49.482;7.716;2023-04-02T07:28:06;4.40;;;4.00;;
11541;SDS011;5827;49.482;7.716;2023-04-02T07:30:07;5.10;;;3.90;;
11541;SDS011;5827;49.482;7.716;2023-04-02T07:32:11;4.30;;;4.00;;
11541;SDS011;5827;49.482;7.716;2023-04-02T07:34:13;6.97;;;6.27;;
11541;SDS011;5827;49.482;7.716;2023-04-02T07:36:15;9.23;;;5.97;;
11541;SDS011;5827;49.482;7.716;2023-04-02T07:38:18;6.53;;;5.83;;
11541;SDS011;5827;49.482;7.716;2023-04-02T07:40:20;7.10;;;6.40;;
11541;SDS011;5827;49.482;7.716;2023-04-02T07:42:23;6.50;;;5.90;;
11541;SDS011;5827;49.482;7.716;2023-04-02T07:44:24;5.70;;;5.13;;
11541;SDS011;5827;49.482;7.716;2023-04-02T07:46:26;5.90;;;5.30;;
11541;SDS011;5827;49.482;7.716;2023-04-02T07:48:29;6.20;;;5.60;;
11541;SDS011;5827;49.482;7.716;2023-04-02T07:50:31;5.93;;;5.43;;
11541;SDS011;5827;49.482;7.716;2023-04-02T07:52:33;5.20;;;4.70;;
11541;SDS011;5827;49.482;7.716;2023-04-02T07:54:34;5.70;;;4.67;;
11541;SDS011;5827;49.482;7.716;2023-04-02T07:56:37;4.17;;;3.87;;
11541;SDS011;5827;49.482;7.716;2023-04-02T07:58:38;4.43;;;4.03;;
11541;SDS011;5827;49.482;7.716;2023-04-02T08:00:40;3.90;;;3.60;;
11541;SDS011;5827;49.482;7.716;2023-04-02T08:02:42;3.57;;;3.27;;
11541;SDS011;5827;49.482;7.716;2023-04-02T08:04:45;3.87;;;3.50;;
11541;SDS011;5827;49.482;7.716;2023-04-02T08:06:46;3.83;;;3.53;;
11541;SDS011;5827;49.482;7.716;2023-04-02T08:08:49;3.53;;;3.00;;
11541;SDS011;5827;49.482;7.716;2023-04-02T08:10:50;3.60;;;3.30;;
11541;SDS011;5827;49.482;7.716;2023-04-02T08:12:52;3.83;;;3.00;;
11541;SDS011;5827;49.482;7.716;2023-04-02T08:14:53;3.90;;;3.60;;
11541;SDS011;5827;49.482;7.716;2023-04-02T08:16:55;3.50;;;3.20;;
11541;SDS011;5827;49.482;7.716;2023-04-02T08:18:56;3.70;;;3.40;;
11541;SDS011;5827;49.482;7.716;2023-04-02T08:20:59;3.07;;;2.87;;
11541;SDS011;5827;49.482;7.716;2023-04-02T08:23:01;3.60;;;3.30;;
11541;SDS011;5827;49.482;7.716;2023-04-02T08:25:03;3.20;;;3.00;;
11541;SDS011;5827;49.482;7.716;2023-04-02T08:27:05;4.10;;;3.00;;
11541;SDS011;5827;49.482;7.716;2023-04-02T08:29:06;3.37;;;3.10;;
11541;SDS011;5827;49.482;7.716;2023-04-02T08:31:08;4.03;;;3.73;;
11541;SDS011;5827;49.482;7.716;2023-04-02T08:33:10;3.73;;;3.33;;
11541;SDS011;5827;49.482;7.716;2023-04-02T08:35:12;4.73;;;3.63;;
11541;SDS011;5827;49.482;7.716;2023-04-02T08:37:17;3.73;;;3.33;;
11541;SDS011;5827;49.482;7.716;2023-04-02T08:39:18;4.10;;;3.70;;
11541;SDS011;5827;49.482;7.716;2023-04-02T08:41:20;4.10;;;3.80;;
11541;SDS011;5827;49.482;7.716;2023-04-02T08:43:29;4.10;;;3.80;;
11541;SDS011;5827;49.482;7.716;2023-04-02T08:45:44;3.93;;;3.60;;
11541;SDS011;5827;49.482;7.716;2023-04-02T08:47:55;4.43;;;4.03;;
11541;SDS011;5827;49.482;7.716;2023-04-02T08:49:59;5.13;;;4.70;;
11541;SDS011;5827;49.482;7.716;2023-04-02T08:52:04;4.33;;;4.03;;
11541;SDS011;5827;49.482;7.716;2023-04-02T08:54:10;4.90;;;4.50;;
11541;SDS011;5827;49.482;7.716;2023-04-02T08:56:17;5.87;;;4.87;;
11541;SDS011;5827;49.482;7.716;2023-04-02T08:58:26;5.30;;;4.80;;
11541;SDS011;5827;49.482;7.716;2023-04-02T09:00:35;5.03;;;4.63;;
11541;SDS011;5827;49.482;7.716;2023-04-02T09:02:40;5.80;;;5.30;;
11541;SDS011;5827;49.482;7.716;2023-04-02T09:04:45;5.83;;;4.63;;
11541;SDS011;5827;49.482;7.716;2023-04-02T09:06:47;5.40;;;4.90;;
11541;SDS011;5827;49.482;7.716;2023-04-02T09:08:52;5.10;;;4.70;;
11541;SDS011;5827;49.482;7.716;2023-04-02T09:10:58;4.60;;;4.20;;
11541;SDS011;5827;49.482;7.716;2023-04-02T09:13:02;3.90;;;3.60;;
11541;SDS011;5827;49.482;7.716;2023-04-02T09:15:13;3.50;;;3.20;;
11541;SDS011;5827;49.482;7.716;2023-04-02T09:17:22;3.57;;;3.27;;
11541;SDS011;5827;49.482;7.716;2023-04-02T09:19:25;5.53;;;5.03;;
11541;SDS011;5827;49.482;7.716;2023-04-02T09:21:34;2.97;;;2.70;;
11541;SDS011;5827;49.482;7.716;2023-04-02T09:23:41;1.73;;;1.63;;
11541;SDS011;5827;49.482;7.716;2023-04-02T09:25:43;1.97;;;1.87;;
11541;SDS011;5827;49.482;7.716;2023-04-02T09:27:48;2.40;;;2.20;;
11541;SDS011;5827;49.482;7.716;2023-04-02T09:29:52;2.27;;;2.07;;
11541;SDS011;5827;49.482;7.716;2023-04-02T09:31:56;2.90;;;2.40;;
11541;SDS011;5827;49.482;7.716;2023-04-02T09:36:32;5.33;;;3.60;;
11541;SDS011;5827;49.482;7.716;2023-04-02T09:38:35;3.33;;;3.07;;
11541;SDS011;5827;49.482;7.716;2023-04-02T09:40:39;2.80;;;2.60;;
11541;SDS011;5827;49.482;7.716;2023-04-02T09:42:47;2.97;;;2.50;;
11541;SDS011;5827;49.482;7.716;2023-04-02T09:44:49;2.70;;;2.50;;
11541;SDS011;5827;49.482;7.716;2023-04-02T09:46:54;2.80;;;2.60;;
11541;SDS011;5827;49.482;7.716;2023-04-02T09:48:59;2.33;;;2.17;;
11541;SDS011;5827;49.482;7.716;2023-04-02T09:51:05;2.10;;;2.00;;
11541;SDS011;5827;49.482;7.716;2023-04-02T09:53:22;2.87;;;2.63;;
11541;SDS011;5827;49.482;7.716;2023-04-02T09:55:28;2.30;;;2.20;;
11541;SDS011;5827;49.482;7.716;2023-04-02T09:57:30;3.00;;;2.47;;
11541;SDS011;5827;49.482;7.716;2023-04-02T09:59:33;3.13;;;2.53;;
11541;SDS011;5827;49.482;7.716;2023-04-02T10:01:37;1.80;;;1.63;;
11541;SDS011;5827;49.482;7.716;2023-04-02T10:03:40;1.30;;;1.30;;
11541;SDS011;5827;49.482;7.716;2023-04-02T10:05:43;1.57;;;1.47;;
11541;SDS011;5827;49.482;7.716;2023-04-02T10:07:46;1.90;;;1.60;;
11541;SDS011;5827;49.482;7.716;2023-04-02T10:09:55;1.30;;;1.20;;
11541;SDS011;5827;49.482;7.716;2023-04-02T10:11:57;1.40;;;1.30;;
11541;SDS011;5827;49.482;7.716;2023-04-02T10:14:00;3.20;;;1.27;;
11541;SDS011;5827;49.482;7.716;2023-04-02T10:16:07;1.33;;;1.27;;
11541;SDS011;5827;49.482;7.716;2023-04-02T10:18:15;1.30;;;1.20;;
11541;SDS011;5827;49.482;7.716;2023-04-02T10:20:23;1.10;;;1.10;;
11541;SDS011;5827;49.482;7.716;2023-04-02T10:22:28;1.53;;;1.43;;
11541;SDS011;5827;49.482;7.716;2023-04-02T10:24:30;1.93;;;1.53;;
11541;SDS011;5827;49.482;7.716;2023-04-02T10:26:41;1.40;;;1.30;;
11541;SDS011;5827;49.482;7.716;2023-04-02T10:28:54;2.60;;;1.60;;
11541;SDS011;5827;49.482;7.716;2023-04-02T10:31:12;1.60;;;1.50;;
11541;SDS011;5827;49.482;7.716;2023-04-02T10:33:22;1.90;;;1.80;;
11541;SDS011;5827;49.482;7.716;2023-04-02T10:35:33;2.00;;;1.90;;
11541;SDS011;5827;49.482;7.716;2023-04-02T10:37:57;3.00;;;2.40;;
11541;SDS011;5827;49.482;7.716;2023-04-02T10:40:22;2.47;;;2.27;;
11541;SDS011;5827;49.482;7.716;2023-04-02T10:42:29;2.77;;;2.30;;
11541;SDS011;5827;49.482;7.716;2023-04-02T10:44:41;3.23;;;1.80;;
11541;SDS011;5827;49.482;7.716;2023-04-02T10:47:00;3.57;;;2.30;;
11541;SDS011;5827;49.482;7.716;2023-04-02T10:49:09;1.97;;;1.73;;
11541;SDS011;5827;49.482;7.716;2023-04-02T10:51:21;2.77;;;2.57;;
11541;SDS011;5827;49.482;7.716;2023-04-02T10:53:30;2.20;;;2.10;;
11541;SDS011;5827;49.482;7.716;2023-04-02T10:55:39;2.23;;;2.03;;
11541;SDS011;5827;49.482;7.716;2023-04-02T10:57:43;2.37;;;2.00;;
11541;SDS011;5827;49.482;7.716;2023-04-02T10:59:47;2.20;;;2.10;;
11541;SDS011;5827;49.482;7.716;2023-04-02T11:01:54;2.90;;;2.70;;
11541;SDS011;5827;49.482;7.716;2023-04-02T11:04:00;2.40;;;2.30;;
11541;SDS011;5827;49.482;7.716;2023-04-02T11:06:10;3.13;;;2.83;;
11541;SDS011;5827;49.482;7.716;2023-04-02T11:08:17;2.90;;;2.70;;
11541;SDS011;5827;49.482;7.716;2023-04-02T11:10:23;3.60;;;3.10;;
11541;SDS011;5827;49.482;7.716;2023-04-02T11:12:30;4.03;;;3.63;;
11541;SDS011;5827;49.482;7.716;2023-04-02T11:14:38;5.57;;;4.60;;
11541;SDS011;5827;49.482;7.716;2023-04-02T11:16:40;3.50;;;3.20;;
11541;SDS011;5827;49.482;7.716;2023-04-02T11:21:37;2.30;;;2.20;;
11541;SDS011;5827;49.482;7.716;2023-04-02T11:23:55;2.60;;;2.40;;
11541;SDS011;5827;49.482;7.716;2023-04-02T11:26:26;1.90;;;1.80;;
11541;SDS011;5827;49.482;7.716;2023-04-02T11:28:40;2.40;;;2.30;;
11541;SDS011;5827;49.482;7.716;2023-04-02T11:30:41;2.17;;;2.03;;
11541;SDS011;5827;49.482;7.716;2023-04-02T11:32:43;1.80;;;1.70;;
11541;SDS011;5827;49.482;7.716;2023-04-02T11:37:31;3.10;;;2.80;;
11541;SDS011;5827;49.482;7.716;2023-04-02T11:39:45;3.13;;;2.83;;
11541;SDS011;5827;49.482;7.716;2023-04-02T11:42:01;2.33;;;2.13;;
11541;SDS011;5827;49.482;7.716;2023-04-02T11:44:17;5.57;;;5.07;;
11541;SDS011;5827;49.482;7.716;2023-04-02T11:46:39;3.17;;;2.00;;
11541;SDS011;5827;49.482;7.716;2023-04-02T11:48:44;2.37;;;1.80;;
11541;SDS011;5827;49.482;7.716;2023-04-02T11:50:45;2.07;;;1.97;;
11541;SDS011;5827;49.482;7.716;2023-04-02T11:52:52;1.73;;;1.43;;
11541;SDS011;5827;49.482;7.716;2023-04-02T11:54:55;1.63;;;1.53;;
11541;SDS011;5827;49.482;7.716;2023-04-02T11:57:00;1.53;;;1.43;;
11541;SDS011;5827;49.482;7.716;2023-04-02T11:59:12;1.70;;;1.60;;
11541;SDS011;5827;49.482;7.716;2023-04-02T12:03:51;2.17;;;1.93;;
11541;SDS011;5827;49.482;7.716;2023-04-02T12:06:03;1.43;;;1.33;;
11541;SDS011;5827;49.482;7.716;2023-04-02T12:10:49;1.83;;;1.40;;
11541;SDS011;5827;49.482;7.716;2023-04-02T12:12:54;1.50;;;1.40;;
11541;SDS011;5827;49.482;7.716;2023-04-02T12:14:55;1.63;;;1.53;;
11541;SDS011;5827;49.482;7.716;2023-04-02T12:16:58;1.70;;;1.60;;
11541;SDS011;5827;49.482;7.716;2023-04-02T12:19:00;1.50;;;1.40;;
11541;SDS011;5827;49.482;7.716;2023-04-02T12:21:08;1.50;;;1.40;;
11541;SDS011;5827;49.482;7.716;2023-04-02T12:23:19;1.93;;;1.83;;
11541;SDS011;5827;49.482;7.716;2023-04-02T12:25:26;2.53;;;1.80;;
11541;SDS011;5827;49.482;7.716;2023-04-02T12:27:30;1.70;;;1.60;;
11541;SDS011;5827;49.482;7.716;2023-04-02T12:29:37;1.73;;;1.63;;
11541;SDS011;5827;49.482;7.716;2023-04-02T12:31:41;1.87;;;1.77;;
11541;SDS011;5827;49.482;7.716;2023-04-02T12:33:43;2.27;;;1.80;;
11541;SDS011;5827;49.482;7.716;2023-04-02T12:35:45;1.60;;;1.50;;
11541;SDS011;5827;49.482;7.716;2023-04-02T12:37:51;3.77;;;1.80;;
11541;SDS011;5827;49.482;7.716;2023-04-02T12:39:54;1.87;;;1.77;;
11541;SDS011;5827;49.482;7.716;2023-04-02T12:41:58;2.47;;;2.27;;
11541;SDS011;5827;49.482;7.716;2023-04-02T12:44:00;2.10;;;1.90;;
11541;SDS011;5827;49.482;7.716;2023-04-02T12:46:03;2.33;;;2.13;;
11541;SDS011;5827;49.482;7.716;2023-04-02T12:48:08;3.23;;;2.93;;
11541;SDS011;5827;49.482;7.716;2023-04-02T12:50:12;2.83;;;2.20;;
11541;SDS011;5827;49.482;7.716;2023-04-02T12:52:15;2.63;;;2.00;;
11541;SDS011;5827;49.482;7.716;2023-04-02T12:54:20;1.80;;;1.70;;
11541;SDS011;5827;49.482;7.716;2023-04-02T12:56:22;2.00;;;1.90;;
11541;SDS011;5827;49.482;7.716;2023-04-02T12:58:27;1.70;;;1.60;;
11541;SDS011;5827;49.482;7.716;2023-04-02T13:00:32;1.60;;;1.50;;
11541;SDS011;5827;49.482;7.716;2023-04-02T13:02:41;1.63;;;1.53;;
11541;SDS011;5827;49.482;7.716;2023-04-02T13:04:45;1.80;;;1.70;;
11541;SDS011;5827;49.482;7.716;2023-04-02T13:06:48;1.90;;;1.80;;
11541;SDS011;5827;49.482;7.716;2023-04-02T13:08:53;1.73;;;1.63;;